createdAt,value
2019-03-19T00:00:18.243Z,65.07
2019-03-19T00:00:56.474Z,65.03
2019-03-19T00:01:32.344Z,65.00
2019-03-19T00:02:08.305Z,64.98
2019-03-19T00:02:44.220Z,64.97
2019-03-19T00:03:20.089Z,64.96
2019-03-19T00:03:55.913Z,64.95
2019-03-19T00:04:31.810Z,64.98
2019-03-19T00:05:07.972Z,64.98
2019-03-19T00:05:43.971Z,64.50
2019-03-19T00:06:19.857Z,64.16
2019-03-19T00:06:55.742Z,64.05
2019-03-19T00:07:31.594Z,64.35
2019-03-19T00:08:07.454Z,64.35
2019-03-19T00:08:43.274Z,64.07
2019-03-19T00:09:19.154Z,63.92
2019-03-19T00:09:55.007Z,63.06
2019-03-19T00:10:30.902Z,63.06
2019-03-19T00:11:06.771Z,63.71
2019-03-19T00:11:42.628Z,63.71
2019-03-19T00:12:18.504Z,63.26
2019-03-19T00:12:54.368Z,62.82
2019-03-19T00:13:30.275Z,63.46
2019-03-19T00:14:06.150Z,63.11
2019-03-19T00:14:42.016Z,62.89
2019-03-19T00:15:18.059Z,62.89
2019-03-19T00:15:53.914Z,63.16
2019-03-19T00:16:30.027Z,63.25
2019-03-19T00:17:06.140Z,63.19
2019-03-19T00:17:42.068Z,63.19
2019-03-19T00:18:18.067Z,62.52
2019-03-19T00:18:54.200Z,62.83
2019-03-19T00:19:30.075Z,62.83
2019-03-19T00:20:06.169Z,61.88
2019-03-19T00:20:42.105Z,61.88
2019-03-19T00:21:17.956Z,62.52
2019-03-19T00:21:53.970Z,62.52
2019-03-19T00:22:29.851Z,61.67
2019-03-19T00:23:05.860Z,61.90
2019-03-19T00:23:41.867Z,61.37
2019-03-19T00:24:17.875Z,61.37
2019-03-19T00:24:53.908Z,61.86
2019-03-19T00:25:30.661Z,62.10
2019-03-19T00:26:06.650Z,62.10
2019-03-19T00:26:42.582Z,61.85
2019-03-19T00:27:18.458Z,61.77
2019-03-19T00:27:54.433Z,61.70
2019-03-19T00:28:30.331Z,61.60
2019-03-19T00:29:06.205Z,61.38
2019-03-19T00:29:42.056Z,61.38
2019-03-19T00:30:18.063Z,61.22
2019-03-19T00:30:53.959Z,61.13
2019-03-19T00:31:29.840Z,60.99
2019-03-19T00:32:05.723Z,60.81
2019-03-19T00:32:41.762Z,60.62
2019-03-19T00:33:17.649Z,60.55
2019-03-19T00:33:53.487Z,60.47
2019-03-19T00:34:29.331Z,60.33
2019-03-19T00:35:05.371Z,60.21
2019-03-19T00:35:41.304Z,60.17
2019-03-19T00:36:17.642Z,60.08
2019-03-19T00:36:53.662Z,60.08
2019-03-19T00:37:29.650Z,60.03
2019-03-19T00:38:05.602Z,59.98
2019-03-19T00:38:41.508Z,59.89
2019-03-19T00:39:17.456Z,59.79
2019-03-19T00:39:53.469Z,59.66
2019-03-19T00:40:29.330Z,59.57
2019-03-19T00:41:05.392Z,59.47
2019-03-19T00:41:41.243Z,59.35
2019-03-19T00:42:17.129Z,59.11
2019-03-19T00:42:52.986Z,59.01
2019-03-19T00:43:28.842Z,58.95
2019-03-19T00:44:04.691Z,58.83
2019-03-19T00:44:40.544Z,58.69
2019-03-19T00:45:16.388Z,58.47
2019-03-19T00:45:52.246Z,58.20
2019-03-19T00:46:28.245Z,58.01
2019-03-19T00:47:04.078Z,57.86
2019-03-19T00:47:39.965Z,57.73
2019-03-19T00:48:15.838Z,57.64
2019-03-19T00:48:51.866Z,57.57
2019-03-19T00:49:27.722Z,57.50
2019-03-19T00:50:03.593Z,57.31
2019-03-19T00:50:39.434Z,57.16
2019-03-19T00:51:15.439Z,57.02
2019-03-19T00:51:51.383Z,56.92
2019-03-19T00:52:27.273Z,56.88
2019-03-19T00:53:03.211Z,56.76
2019-03-19T00:53:39.082Z,56.68
2019-03-19T00:54:14.974Z,56.43
2019-03-19T00:54:50.955Z,56.35
2019-03-19T00:55:26.838Z,56.20
2019-03-19T00:56:02.652Z,56.14
2019-03-19T00:56:38.485Z,56.01
2019-03-19T00:57:14.506Z,55.90
2019-03-19T00:57:50.358Z,55.80
2019-03-19T00:58:26.221Z,55.75
2019-03-19T00:59:02.134Z,55.73
2019-03-19T00:59:38.080Z,55.65
2019-03-19T01:00:14.339Z,55.55
2019-03-19T01:00:50.229Z,55.47
2019-03-19T01:01:26.095Z,55.12
2019-03-19T01:02:01.991Z,54.99
2019-03-19T01:02:37.888Z,54.83
2019-03-19T01:03:13.751Z,54.72
2019-03-19T01:03:49.718Z,54.56
2019-03-19T01:04:25.716Z,54.58
2019-03-19T01:05:01.600Z,54.40
2019-03-19T01:05:37.422Z,54.33
2019-03-19T01:06:13.285Z,54.38
2019-03-19T01:06:49.137Z,54.41
2019-03-19T01:07:25.009Z,54.34
2019-03-19T01:08:01.284Z,54.31
2019-03-19T01:08:37.128Z,54.21
2019-03-19T01:09:13.002Z,54.07
2019-03-19T01:09:48.894Z,53.97
2019-03-19T01:10:24.756Z,53.87
2019-03-19T01:11:00.600Z,53.85
2019-03-19T01:11:36.482Z,53.94
2019-03-19T01:12:12.475Z,53.94
2019-03-19T01:12:48.348Z,53.91
2019-03-19T01:13:24.252Z,53.87
2019-03-19T01:14:00.161Z,53.81
2019-03-19T01:14:36.169Z,53.75
2019-03-19T01:15:12.713Z,53.63
2019-03-19T01:15:48.562Z,53.46
2019-03-19T01:16:24.467Z,53.33
2019-03-19T01:17:00.412Z,53.16
2019-03-19T01:17:36.474Z,53.03
2019-03-19T01:18:12.358Z,52.98
2019-03-19T01:18:48.257Z,52.92
2019-03-19T01:19:24.086Z,52.96
2019-03-19T01:20:00.107Z,52.84
2019-03-19T01:20:36.063Z,52.75
2019-03-19T01:21:12.107Z,52.78
2019-03-19T01:21:47.994Z,52.75
2019-03-19T01:22:23.831Z,52.62
2019-03-19T01:22:59.744Z,52.58
2019-03-19T01:23:35.677Z,52.54
2019-03-19T01:24:11.721Z,52.47
2019-03-19T01:24:47.583Z,52.43
2019-03-19T01:25:23.565Z,52.35
2019-03-19T01:25:59.442Z,52.12
2019-03-19T01:26:35.295Z,52.05
2019-03-19T01:27:11.153Z,52.09
2019-03-19T01:27:47.197Z,52.07
2019-03-19T01:28:23.054Z,51.95
2019-03-19T01:28:58.941Z,51.81
2019-03-19T01:29:34.791Z,51.33
2019-03-19T01:30:11.569Z,51.09
2019-03-19T01:30:47.426Z,50.99
2019-03-19T01:31:23.316Z,50.88
2019-03-19T01:31:59.172Z,50.67
2019-03-19T01:32:35.067Z,50.54
2019-03-19T01:33:11.040Z,50.40
2019-03-19T01:33:46.900Z,50.37
2019-03-19T01:34:22.743Z,50.36
2019-03-19T01:34:58.607Z,50.26
2019-03-19T01:35:34.469Z,50.22
2019-03-19T01:36:10.344Z,50.13
2019-03-19T01:36:46.271Z,50.02
2019-03-19T01:37:22.108Z,49.85
2019-03-19T01:37:57.985Z,49.81
2019-03-19T01:38:33.820Z,49.92
2019-03-19T01:39:09.805Z,49.87
2019-03-19T01:39:45.638Z,49.93
2019-03-19T01:40:21.487Z,49.89
2019-03-19T01:40:57.355Z,49.83
2019-03-19T01:41:33.228Z,49.74
2019-03-19T01:42:09.168Z,49.75
2019-03-19T01:42:45.117Z,49.68
2019-03-19T01:43:21.046Z,49.66
2019-03-19T01:43:56.949Z,49.57
2019-03-19T01:44:32.794Z,49.58
2019-03-19T01:45:08.940Z,49.55
2019-03-19T01:45:44.830Z,49.60
2019-03-19T01:46:20.669Z,49.49
2019-03-19T01:46:56.650Z,49.48
2019-03-19T01:47:32.586Z,49.56
2019-03-19T01:48:08.551Z,49.50
2019-03-19T01:48:44.415Z,49.47
2019-03-19T01:49:20.295Z,49.21
2019-03-19T01:49:56.170Z,49.10
2019-03-19T01:50:32.038Z,48.95
2019-03-19T01:51:07.885Z,48.79
2019-03-19T01:51:43.731Z,48.62
2019-03-19T01:52:19.582Z,48.51
2019-03-19T01:52:55.446Z,48.50
2019-03-19T01:53:31.302Z,48.51
2019-03-19T01:54:07.246Z,48.41
2019-03-19T01:54:43.182Z,48.56
2019-03-19T01:55:19.103Z,48.69
2019-03-19T01:56:04.811Z,48.72
2019-03-19T01:56:32.716Z,48.86
2019-03-19T01:57:08.550Z,48.90
2019-03-19T01:57:44.406Z,48.86
2019-03-19T01:58:20.288Z,48.92
2019-03-19T01:58:56.295Z,48.96
2019-03-19T01:59:32.178Z,49.02
2019-03-19T02:00:08.950Z,49.00
2019-03-19T02:00:44.814Z,49.06
2019-03-19T02:01:20.707Z,49.24
2019-03-19T02:01:56.645Z,49.15
2019-03-19T02:02:32.612Z,49.16
2019-03-19T02:03:08.594Z,49.23
2019-03-19T02:03:44.474Z,49.21
2019-03-19T02:04:20.455Z,49.36
2019-03-19T02:04:56.463Z,49.36
2019-03-19T02:05:32.317Z,49.37
2019-03-19T02:06:08.148Z,49.29
2019-03-19T02:06:44.050Z,49.24
2019-03-19T02:07:20.016Z,49.12
2019-03-19T02:07:56.002Z,49.01
2019-03-19T02:08:32.050Z,48.84
2019-03-19T02:09:10.014Z,49.04
2019-03-19T02:09:45.921Z,49.14
2019-03-19T02:10:21.792Z,48.92
2019-03-19T02:10:57.719Z,48.86
2019-03-19T02:11:33.635Z,48.80
2019-03-19T02:12:09.493Z,48.77
2019-03-19T02:12:45.346Z,48.68
2019-03-19T02:13:21.261Z,48.65
2019-03-19T02:13:57.098Z,48.59
2019-03-19T02:14:33.041Z,48.58
2019-03-19T02:15:09.690Z,48.44
2019-03-19T02:15:45.731Z,48.42
2019-03-19T02:16:21.648Z,48.21
2019-03-19T02:16:57.498Z,48.10
2019-03-19T02:17:33.377Z,48.08
2019-03-19T02:18:09.261Z,48.05
2019-03-19T02:18:45.258Z,48.21
2019-03-19T02:19:21.140Z,48.17
2019-03-19T02:19:57.150Z,48.06
2019-03-19T02:20:33.362Z,48.09
2019-03-19T02:21:09.240Z,48.07
2019-03-19T02:21:45.092Z,48.05
2019-03-19T02:22:20.914Z,48.01
2019-03-19T02:22:56.738Z,48.00
2019-03-19T02:23:32.710Z,47.97
2019-03-19T02:24:08.711Z,47.87
2019-03-19T02:24:44.587Z,47.76
2019-03-19T02:25:20.439Z,47.70
2019-03-19T02:25:56.360Z,47.69
2019-03-19T02:26:32.201Z,47.73
2019-03-19T02:27:08.047Z,47.65
2019-03-19T02:27:44.068Z,47.52
2019-03-19T02:28:19.973Z,47.35
2019-03-19T02:28:55.861Z,47.15
2019-03-19T02:29:31.814Z,47.03
2019-03-19T02:30:08.459Z,46.91
2019-03-19T02:30:44.448Z,46.98
2019-03-19T02:31:20.323Z,47.40
2019-03-19T02:31:56.207Z,47.45
2019-03-19T02:32:32.048Z,47.65
2019-03-19T02:33:07.966Z,47.70
2019-03-19T02:33:43.819Z,47.96
2019-03-19T02:34:19.833Z,47.54
2019-03-19T02:34:55.699Z,47.51
2019-03-19T02:35:31.606Z,47.46
2019-03-19T02:36:07.495Z,47.32
2019-03-19T02:36:43.321Z,47.37
2019-03-19T02:37:19.174Z,47.32
2019-03-19T02:37:55.157Z,47.64
2019-03-19T02:38:31.054Z,47.83
2019-03-19T02:39:08.332Z,47.97
2019-03-19T02:39:44.216Z,47.83
2019-03-19T02:40:20.097Z,47.73
2019-03-19T02:40:56.118Z,47.65
2019-03-19T02:41:32.106Z,47.64
2019-03-19T02:42:08.028Z,47.64
2019-03-19T02:42:43.884Z,47.62
2019-03-19T02:43:22.636Z,47.84
2019-03-19T02:43:57.461Z,48.00
2019-03-19T02:44:33.274Z,47.98
2019-03-19T02:45:09.602Z,48.09
2019-03-19T02:45:45.559Z,48.28
2019-03-19T02:46:21.470Z,48.36
2019-03-19T02:46:57.401Z,48.28
2019-03-19T02:47:33.381Z,48.15
2019-03-19T02:48:09.243Z,48.01
2019-03-19T02:48:45.202Z,47.75
2019-03-19T02:49:21.188Z,47.65
2019-03-19T02:49:57.085Z,47.68
2019-03-19T02:50:33.000Z,47.69
2019-03-19T02:51:09.018Z,47.63
2019-03-19T02:51:44.998Z,47.64
2019-03-19T02:52:20.872Z,47.64
2019-03-19T02:52:56.689Z,47.49
2019-03-19T02:53:32.541Z,47.33
2019-03-19T02:54:08.360Z,47.32
2019-03-19T02:54:44.383Z,47.30
2019-03-19T02:55:20.254Z,47.23
2019-03-19T02:55:56.089Z,47.14
2019-03-19T02:56:33.552Z,47.07
2019-03-19T02:57:09.564Z,47.13
2019-03-19T02:57:45.439Z,47.13
2019-03-19T02:58:21.314Z,47.04
2019-03-19T02:58:57.174Z,46.88
2019-03-19T02:59:33.080Z,46.74
2019-03-19T03:00:09.540Z,46.60
2019-03-19T03:00:45.543Z,46.47
2019-03-19T03:01:21.408Z,46.32
2019-03-19T03:01:57.308Z,46.19
2019-03-19T03:02:33.175Z,45.88
2019-03-19T03:03:09.083Z,45.70
2019-03-19T03:03:44.925Z,45.53
2019-03-19T03:04:20.786Z,45.57
2019-03-19T03:04:56.668Z,45.62
2019-03-19T03:05:32.532Z,45.61
2019-03-19T03:06:08.531Z,45.58
2019-03-19T03:06:44.384Z,45.56
2019-03-19T03:07:20.280Z,45.50
2019-03-19T03:07:56.143Z,45.43
2019-03-19T03:08:31.972Z,45.14
2019-03-19T03:09:08.941Z,44.77
2019-03-19T03:09:44.854Z,44.68
2019-03-19T03:10:20.736Z,44.68
2019-03-19T03:10:56.615Z,44.75
2019-03-19T03:11:32.550Z,44.82
2019-03-19T03:12:08.440Z,44.76
2019-03-19T03:12:44.275Z,44.59
2019-03-19T03:13:20.145Z,44.41
2019-03-19T03:13:56.043Z,44.24
2019-03-19T03:14:31.933Z,44.16
2019-03-19T03:15:08.213Z,43.83
2019-03-19T03:15:44.001Z,43.65
2019-03-19T03:16:19.836Z,43.48
2019-03-19T03:16:55.741Z,43.61
2019-03-19T03:17:31.626Z,43.58
2019-03-19T03:18:07.593Z,43.48
2019-03-19T03:18:43.422Z,43.50
2019-03-19T03:19:19.274Z,43.55
2019-03-19T03:19:55.099Z,43.47
2019-03-19T03:20:30.944Z,43.12
2019-03-19T03:21:06.840Z,42.72
2019-03-19T03:21:42.765Z,42.71
2019-03-19T03:22:18.635Z,42.51
2019-03-19T03:22:54.536Z,42.41
2019-03-19T03:23:30.393Z,42.78
2019-03-19T03:24:06.273Z,42.55
2019-03-19T03:24:42.208Z,42.55
2019-03-19T03:25:18.183Z,42.61
2019-03-19T03:25:54.042Z,42.64
2019-03-19T03:26:30.006Z,42.72
2019-03-19T03:27:05.861Z,42.67
2019-03-19T03:27:41.881Z,42.55
2019-03-19T03:28:17.821Z,42.32
2019-03-19T03:28:53.768Z,42.37
2019-03-19T03:29:29.705Z,42.47
2019-03-19T03:30:06.069Z,42.37
2019-03-19T03:30:42.135Z,41.84
2019-03-19T03:31:18.125Z,41.53
2019-03-19T03:31:54.195Z,41.53
2019-03-19T03:32:30.100Z,41.65
2019-03-19T03:33:06.253Z,41.76
2019-03-19T03:33:42.111Z,41.84
2019-03-19T03:34:17.973Z,41.84
2019-03-19T03:34:53.861Z,41.79
2019-03-19T03:35:29.730Z,41.56
2019-03-19T03:36:05.692Z,41.53
2019-03-19T03:36:41.602Z,41.47
2019-03-19T03:37:17.461Z,41.44
2019-03-19T03:37:53.558Z,41.49
2019-03-19T03:38:29.573Z,41.43
2019-03-19T03:39:07.117Z,41.49
2019-03-19T03:39:42.969Z,41.90
2019-03-19T03:40:19.047Z,41.83
2019-03-19T03:40:54.886Z,41.72
2019-03-19T03:41:30.761Z,41.55
2019-03-19T03:42:06.760Z,41.61
2019-03-19T03:42:43.530Z,41.32
2019-03-19T03:43:19.642Z,41.30
2019-03-19T03:43:55.615Z,41.21
2019-03-19T03:44:31.652Z,40.90
2019-03-19T03:45:08.048Z,41.21
2019-03-19T03:45:43.967Z,41.21
2019-03-19T03:46:19.854Z,41.15
2019-03-19T03:46:55.883Z,41.07
2019-03-19T03:47:31.718Z,41.28
2019-03-19T03:48:07.736Z,41.36
2019-03-19T03:48:43.656Z,41.20
2019-03-19T03:49:19.646Z,41.16
2019-03-19T03:49:55.490Z,41.15
2019-03-19T03:50:31.415Z,41.29
2019-03-19T03:51:07.299Z,41.35
2019-03-19T03:51:43.177Z,41.24
2019-03-19T03:52:19.086Z,40.49
2019-03-19T03:52:54.965Z,40.23
2019-03-19T03:53:30.853Z,40.03
2019-03-19T03:54:06.693Z,39.82
2019-03-19T03:54:42.598Z,39.73
2019-03-19T03:55:18.441Z,39.66
2019-03-19T03:55:54.537Z,39.73
2019-03-19T03:56:30.458Z,39.79
2019-03-19T03:57:06.333Z,39.82
2019-03-19T03:57:42.305Z,39.60
2019-03-19T03:58:18.148Z,39.27
2019-03-19T03:59:00.577Z,39.29
2019-03-19T03:59:31.734Z,39.03
2019-03-19T04:00:09.560Z,38.89
2019-03-19T04:00:45.443Z,38.80
2019-03-19T04:01:21.529Z,38.75
2019-03-19T04:01:57.384Z,38.72
2019-03-19T04:02:33.272Z,38.69
2019-03-19T04:03:09.194Z,38.50
2019-03-19T04:03:45.046Z,38.29
2019-03-19T04:04:20.888Z,38.22
2019-03-19T04:04:56.794Z,38.06
2019-03-19T04:05:32.634Z,37.95
2019-03-19T04:06:08.503Z,37.96
2019-03-19T04:06:44.360Z,37.97
2019-03-19T04:07:20.372Z,38.24
2019-03-19T04:07:56.233Z,38.22
2019-03-19T04:08:32.192Z,38.01
2019-03-19T04:09:09.553Z,37.86
2019-03-19T04:09:45.594Z,37.78
2019-03-19T04:10:21.477Z,37.76
2019-03-19T04:10:57.350Z,37.79
2019-03-19T04:11:33.337Z,37.75
2019-03-19T04:12:09.181Z,37.86
2019-03-19T04:12:45.132Z,37.75
2019-03-19T04:13:21.085Z,37.67
2019-03-19T04:13:56.968Z,37.83
2019-03-19T04:14:32.817Z,37.85
2019-03-19T04:15:09.332Z,37.60
2019-03-19T04:15:45.320Z,37.47
2019-03-19T04:16:21.178Z,37.52
2019-03-19T04:16:57.071Z,37.47
2019-03-19T04:17:33.002Z,37.43
2019-03-19T04:18:08.865Z,37.39
2019-03-19T04:18:44.747Z,37.34
2019-03-19T04:19:20.627Z,37.38
2019-03-19T04:19:56.539Z,37.37
2019-03-19T04:20:32.435Z,37.12
2019-03-19T04:21:08.366Z,36.74
2019-03-19T04:21:44.269Z,36.69
2019-03-19T04:22:20.131Z,36.54
2019-03-19T04:22:56.092Z,36.50
2019-03-19T04:23:31.950Z,36.54
2019-03-19T04:24:07.810Z,36.34
2019-03-19T04:24:43.649Z,36.14
2019-03-19T04:25:19.660Z,36.16
2019-03-19T04:25:55.570Z,36.21
2019-03-19T04:26:31.571Z,36.29
2019-03-19T04:27:16.042Z,36.30
2019-03-19T04:27:45.198Z,36.31
2019-03-19T04:28:21.181Z,36.38
2019-03-19T04:28:57.038Z,36.39
2019-03-19T04:29:33.047Z,36.42
2019-03-19T04:30:09.644Z,36.50
2019-03-19T04:30:45.531Z,36.40
2019-03-19T04:31:21.426Z,36.26
2019-03-19T04:31:57.486Z,36.25
2019-03-19T04:32:33.313Z,36.12
2019-03-19T04:33:09.279Z,36.14
2019-03-19T04:33:45.213Z,36.17
2019-03-19T04:34:21.095Z,36.19
2019-03-19T04:34:57.058Z,36.15
2019-03-19T04:35:32.938Z,36.09
2019-03-19T04:36:08.828Z,35.88
2019-03-19T04:36:44.735Z,35.71
2019-03-19T04:37:20.642Z,35.56
2019-03-19T04:37:56.579Z,35.61
2019-03-19T04:38:32.501Z,35.96
2019-03-19T04:39:09.753Z,35.87
2019-03-19T04:39:45.633Z,35.95
2019-03-19T04:40:21.491Z,35.93
2019-03-19T04:40:57.335Z,35.89
2019-03-19T04:41:33.175Z,36.07
2019-03-19T04:42:09.096Z,36.10
2019-03-19T04:42:45.159Z,35.87
2019-03-19T04:43:21.177Z,35.69
2019-03-19T04:43:57.002Z,35.70
2019-03-19T04:44:32.847Z,35.71
2019-03-19T04:45:09.528Z,35.79
2019-03-19T04:45:45.430Z,35.77
2019-03-19T04:46:21.306Z,35.67
2019-03-19T04:46:57.218Z,35.58
2019-03-19T04:47:33.202Z,35.55
2019-03-19T04:48:09.068Z,35.59
2019-03-19T04:48:44.986Z,35.68
2019-03-19T04:49:20.829Z,35.71
2019-03-19T04:49:56.682Z,35.73
2019-03-19T04:50:32.524Z,35.73
2019-03-19T04:51:08.404Z,35.92
2019-03-19T04:51:44.262Z,35.74
2019-03-19T04:52:20.070Z,35.66
2019-03-19T04:52:56.025Z,35.46
2019-03-19T04:53:31.949Z,35.35
2019-03-19T04:54:07.892Z,35.42
2019-03-19T04:54:43.783Z,35.30
2019-03-19T04:55:19.675Z,35.34
2019-03-19T04:55:55.531Z,35.50
2019-03-19T04:56:31.360Z,35.48
2019-03-19T04:57:07.357Z,35.45
2019-03-19T04:57:43.288Z,35.68
2019-03-19T04:58:19.290Z,35.77
2019-03-19T04:58:55.285Z,35.40
2019-03-19T04:59:31.199Z,35.34
2019-03-19T05:00:07.376Z,35.21
2019-03-19T05:00:43.279Z,35.20
2019-03-19T05:01:19.121Z,35.14
2019-03-19T05:01:55.031Z,35.30
2019-03-19T05:02:30.996Z,35.28
2019-03-19T05:03:06.990Z,35.23
2019-03-19T05:03:42.834Z,35.40
2019-03-19T05:04:18.708Z,35.63
2019-03-19T05:04:54.612Z,35.48
2019-03-19T05:05:30.588Z,35.50
2019-03-19T05:06:06.593Z,35.54
2019-03-19T05:06:42.498Z,35.81
2019-03-19T05:07:18.340Z,35.81
2019-03-19T05:07:54.228Z,35.79
2019-03-19T05:08:30.263Z,35.80
2019-03-19T05:09:08.548Z,35.80
2019-03-19T05:09:44.456Z,35.78
2019-03-19T05:10:20.350Z,35.79
2019-03-19T05:10:56.352Z,35.80
2019-03-19T05:11:32.330Z,35.74
2019-03-19T05:12:08.235Z,35.72
2019-03-19T05:12:44.399Z,35.93
2019-03-19T05:13:20.280Z,36.15
2019-03-19T05:13:56.134Z,36.16
2019-03-19T05:14:32.234Z,36.23
2019-03-19T05:15:08.245Z,36.17
2019-03-19T05:15:44.142Z,35.98
2019-03-19T05:16:20.005Z,35.87
2019-03-19T05:16:56.002Z,35.91
2019-03-19T05:17:32.025Z,36.00
2019-03-19T05:18:07.905Z,35.94
2019-03-19T05:18:43.762Z,36.40
2019-03-19T05:19:19.811Z,36.33
2019-03-19T05:19:55.688Z,36.47
2019-03-19T05:20:31.558Z,36.34
2019-03-19T05:21:07.412Z,36.28
2019-03-19T05:21:43.244Z,36.50
2019-03-19T05:22:19.090Z,36.67
2019-03-19T05:22:54.945Z,36.70
2019-03-19T05:23:30.779Z,36.74
2019-03-19T05:24:06.717Z,36.24
2019-03-19T05:24:42.678Z,36.07
2019-03-19T05:25:18.540Z,36.20
2019-03-19T05:25:54.507Z,36.13
2019-03-19T05:26:30.517Z,35.98
2019-03-19T05:27:06.521Z,35.96
2019-03-19T05:27:42.444Z,36.03
2019-03-19T05:28:18.324Z,36.12
2019-03-19T05:28:54.219Z,36.07
2019-03-19T05:29:30.077Z,35.94
2019-03-19T05:30:06.697Z,35.90
2019-03-19T05:30:42.539Z,35.87
2019-03-19T05:31:18.522Z,35.93
2019-03-19T05:31:54.424Z,35.98
2019-03-19T05:32:30.282Z,35.89
2019-03-19T05:33:06.151Z,35.95
2019-03-19T05:33:42.007Z,35.66
2019-03-19T05:34:17.925Z,35.69
2019-03-19T05:34:53.783Z,35.83
2019-03-19T05:35:29.655Z,35.87
2019-03-19T05:36:05.581Z,36.02
2019-03-19T05:36:41.439Z,36.11
2019-03-19T05:37:17.360Z,36.14
2019-03-19T05:37:53.268Z,36.12
2019-03-19T05:38:29.125Z,36.08
2019-03-19T05:39:05.542Z,36.13
2019-03-19T05:39:41.414Z,36.18
2019-03-19T05:40:17.508Z,36.25
2019-03-19T05:40:53.371Z,36.13
2019-03-19T05:41:29.246Z,36.14
2019-03-19T05:42:05.085Z,36.12
2019-03-19T05:42:41.057Z,36.05
2019-03-19T05:43:16.977Z,36.01
2019-03-19T05:43:52.941Z,36.02
2019-03-19T05:44:28.810Z,36.05
2019-03-19T05:45:04.789Z,35.98
2019-03-19T05:45:40.699Z,36.02
2019-03-19T05:46:16.595Z,36.08
2019-03-19T05:46:52.508Z,36.19
2019-03-19T05:47:36.712Z,36.29
2019-03-19T05:48:06.216Z,36.59
2019-03-19T05:48:42.071Z,36.56
2019-03-19T05:49:17.920Z,36.75
2019-03-19T05:49:53.795Z,36.72
2019-03-19T05:50:29.703Z,36.77
2019-03-19T05:51:05.551Z,36.64
2019-03-19T05:51:41.380Z,36.60
2019-03-19T05:52:17.219Z,36.53
2019-03-19T05:52:53.091Z,36.63
2019-03-19T05:53:28.944Z,36.74
2019-03-19T05:54:05.086Z,36.74
2019-03-19T05:54:41.003Z,36.88
2019-03-19T05:55:16.877Z,37.05
2019-03-19T05:55:52.775Z,37.29
2019-03-19T05:56:28.718Z,37.76
2019-03-19T05:57:04.732Z,37.52
2019-03-19T05:57:48.985Z,37.26
2019-03-19T05:58:18.476Z,37.19
2019-03-19T05:58:54.312Z,37.33
2019-03-19T05:59:30.178Z,37.56
2019-03-19T06:00:07.188Z,37.86
2019-03-19T06:00:43.250Z,38.01
2019-03-19T06:01:19.095Z,37.91
2019-03-19T06:01:55.107Z,38.06
2019-03-19T06:02:31.044Z,38.20
2019-03-19T06:03:06.970Z,38.26
2019-03-19T06:03:42.840Z,38.54
2019-03-19T06:04:18.733Z,38.72
2019-03-19T06:04:54.699Z,38.63
2019-03-19T06:05:30.689Z,38.63
2019-03-19T06:06:06.687Z,38.58
2019-03-19T06:06:42.643Z,38.61
2019-03-19T06:07:18.545Z,38.58
2019-03-19T06:07:54.363Z,38.56
2019-03-19T06:08:30.241Z,38.33
2019-03-19T06:09:08.195Z,38.34
2019-03-19T06:09:44.198Z,38.39
2019-03-19T06:10:20.086Z,38.49
2019-03-19T06:10:55.939Z,38.48
2019-03-19T06:11:31.992Z,38.39
2019-03-19T06:12:07.855Z,38.53
2019-03-19T06:12:43.834Z,38.94
2019-03-19T06:13:19.711Z,39.31
2019-03-19T06:13:55.577Z,39.51
2019-03-19T06:14:31.604Z,39.60
2019-03-19T06:15:08.086Z,39.84
2019-03-19T06:15:44.012Z,39.91
2019-03-19T06:16:19.963Z,39.51
2019-03-19T06:16:55.849Z,39.38
2019-03-19T06:17:31.737Z,39.46
2019-03-19T06:18:07.639Z,39.29
2019-03-19T06:18:43.577Z,39.08
2019-03-19T06:19:19.447Z,38.98
2019-03-19T06:19:55.359Z,39.05
2019-03-19T06:20:31.225Z,39.49
2019-03-19T06:21:07.174Z,39.69
2019-03-19T06:21:43.103Z,39.67
2019-03-19T06:22:18.960Z,39.73
2019-03-19T06:22:54.830Z,39.74
2019-03-19T06:23:30.682Z,39.81
2019-03-19T06:24:06.515Z,39.87
2019-03-19T06:24:42.350Z,39.94
2019-03-19T06:25:18.247Z,40.02
2019-03-19T06:25:54.249Z,39.96
2019-03-19T06:26:30.087Z,39.83
2019-03-19T06:27:06.119Z,39.77
2019-03-19T06:27:42.022Z,39.66
2019-03-19T06:28:20.563Z,39.56
2019-03-19T06:28:56.400Z,39.65
2019-03-19T06:29:32.288Z,39.90
2019-03-19T06:30:09.958Z,40.03
2019-03-19T06:30:46.243Z,40.05
2019-03-19T06:31:22.097Z,40.06
2019-03-19T06:31:58.067Z,40.13
2019-03-19T06:32:34.021Z,40.06
2019-03-19T06:33:10.339Z,40.08
2019-03-19T06:33:48.124Z,39.97
2019-03-19T06:34:23.863Z,39.79
2019-03-19T06:34:59.796Z,39.56
2019-03-19T06:35:35.771Z,39.50
2019-03-19T06:36:11.688Z,39.51
2019-03-19T06:36:47.525Z,39.61
2019-03-19T06:37:23.471Z,39.03
2019-03-19T06:37:59.310Z,38.97
2019-03-19T06:38:35.179Z,38.97
2019-03-19T06:39:11.349Z,39.11
2019-03-19T06:39:47.332Z,39.13
2019-03-19T06:40:23.280Z,39.18
2019-03-19T06:40:59.156Z,39.30
2019-03-19T06:41:35.577Z,39.37
2019-03-19T06:42:11.493Z,39.51
2019-03-19T06:42:47.446Z,39.59
2019-03-19T06:43:23.318Z,39.55
2019-03-19T06:43:59.237Z,39.85
2019-03-19T06:44:35.089Z,39.99
2019-03-19T06:45:12.370Z,39.97
2019-03-19T06:45:48.193Z,39.74
2019-03-19T06:46:24.060Z,39.35
2019-03-19T06:47:00.004Z,39.28
2019-03-19T06:47:35.826Z,39.22
2019-03-19T06:48:11.782Z,39.27
2019-03-19T06:48:47.743Z,39.34
2019-03-19T06:49:23.639Z,39.43
2019-03-19T06:49:59.495Z,39.66
2019-03-19T06:50:44.674Z,39.98
2019-03-19T06:51:13.130Z,40.10
2019-03-19T06:51:48.965Z,39.80
2019-03-19T06:52:24.833Z,39.66
2019-03-19T06:53:00.718Z,39.39
2019-03-19T06:53:36.687Z,39.15
2019-03-19T06:54:12.972Z,39.17
2019-03-19T06:54:48.871Z,39.55
2019-03-19T06:55:24.951Z,39.86
2019-03-19T06:56:00.821Z,39.74
2019-03-19T06:56:36.688Z,39.60
2019-03-19T06:57:12.588Z,39.20
2019-03-19T06:57:48.583Z,39.03
2019-03-19T06:58:24.563Z,38.91
2019-03-19T06:59:00.442Z,38.24
2019-03-19T06:59:36.318Z,38.05
2019-03-19T07:00:15.294Z,38.55
2019-03-19T07:00:51.684Z,38.74
2019-03-19T07:01:27.514Z,38.90
2019-03-19T07:02:03.432Z,38.84
2019-03-19T07:02:39.301Z,38.34
2019-03-19T07:03:15.242Z,38.01
2019-03-19T07:03:51.455Z,37.79
2019-03-19T07:04:27.445Z,37.80
2019-03-19T07:05:03.270Z,37.90
2019-03-19T07:05:39.134Z,38.17
2019-03-19T07:06:15.033Z,38.19
2019-03-19T07:06:50.976Z,38.19
2019-03-19T07:07:26.956Z,38.18
2019-03-19T07:08:02.908Z,37.95
2019-03-19T07:08:38.772Z,37.89
2019-03-19T07:09:14.805Z,38.11
2019-03-19T07:09:50.598Z,38.69
2019-03-19T07:10:26.507Z,38.71
2019-03-19T07:11:02.437Z,38.60
2019-03-19T07:11:38.251Z,38.60
2019-03-19T07:12:14.115Z,38.92
2019-03-19T07:12:49.973Z,39.46
2019-03-19T07:13:25.974Z,39.42
2019-03-19T07:14:01.836Z,39.37
2019-03-19T07:14:37.651Z,39.16
2019-03-19T07:15:14.820Z,38.76
2019-03-19T07:15:50.825Z,38.50
2019-03-19T07:16:26.693Z,38.51
2019-03-19T07:17:02.686Z,38.45
2019-03-19T07:17:38.576Z,38.44
2019-03-19T07:18:14.458Z,38.36
2019-03-19T07:18:50.368Z,38.37
2019-03-19T07:19:26.306Z,38.43
2019-03-19T07:20:02.275Z,38.47
2019-03-19T07:20:38.330Z,38.65
2019-03-19T07:21:14.334Z,38.74
2019-03-19T07:21:50.202Z,38.66
2019-03-19T07:22:26.267Z,38.69
2019-03-19T07:23:02.275Z,38.51
2019-03-19T07:23:38.273Z,38.26
2019-03-19T07:24:14.146Z,38.15
2019-03-19T07:24:49.977Z,38.23
2019-03-19T07:25:26.049Z,38.00
2019-03-19T07:26:02.079Z,37.78
2019-03-19T07:26:38.045Z,37.69
2019-03-19T07:27:13.952Z,37.70
2019-03-19T07:27:49.928Z,37.76
2019-03-19T07:28:25.951Z,37.66
2019-03-19T07:29:01.804Z,37.60
2019-03-19T07:29:38.242Z,37.95
2019-03-19T07:30:16.021Z,38.23
2019-03-19T07:30:51.987Z,37.69
2019-03-19T07:31:31.154Z,37.50
2019-03-19T07:32:05.670Z,37.51
2019-03-19T07:32:41.528Z,37.61
2019-03-19T07:33:17.597Z,37.59
2019-03-19T07:33:53.612Z,37.70
2019-03-19T07:34:29.480Z,37.62
2019-03-19T07:35:05.351Z,37.46
2019-03-19T07:35:41.323Z,37.38
2019-03-19T07:36:17.218Z,37.60
2019-03-19T07:36:53.186Z,37.61
2019-03-19T07:37:29.180Z,37.66
2019-03-19T07:38:05.222Z,37.67
2019-03-19T07:38:41.088Z,37.50
2019-03-19T07:39:17.031Z,37.40
2019-03-19T07:39:52.888Z,37.37
2019-03-19T07:40:28.799Z,37.34
2019-03-19T07:41:04.754Z,37.23
2019-03-19T07:41:40.713Z,37.23
2019-03-19T07:42:16.706Z,37.40
2019-03-19T07:42:52.690Z,37.56
2019-03-19T07:43:28.518Z,37.42